createdAt,value
2023-01-07T00:01:23.967Z,38.20
2023-01-07T00:04:50.966Z,40.60
2023-01-07T00:08:17.856Z,44.10
2023-01-07T00:11:45.724Z,73.40
2023-01-07T00:15:14.257Z,125.30
2023-01-07T00:18:42.004Z,113.30
2023-01-07T00:22:09.141Z,71.00
2023-01-07T00:25:36.115Z,36.70
2023-01-07T00:29:03.474Z,39.20
2023-01-07T00:32:44.351Z,30.00
2023-01-07T00:36:12.787Z,54.40
2023-01-07T00:39:41.292Z,73.80
2023-01-07T00:43:09.180Z,118.40
2023-01-07T00:46:36.621Z,129.10
2023-01-07T00:50:03.682Z,103.10
2023-01-07T00:53:30.842Z,178.10
2023-01-07T00:56:57.699Z,192.80
2023-01-07T01:00:26.745Z,216.20
2023-01-07T01:03:53.710Z,137.60
2023-01-07T01:07:20.551Z,184.40
2023-01-07T01:10:47.453Z,107.70
2023-01-07T01:14:14.929Z,66.50
2023-01-07T01:17:42.735Z,71.20
2023-01-07T01:21:12.252Z,121.20
2023-01-07T01:24:39.437Z,100.40
2023-01-07T01:28:06.616Z,99.30
2023-01-07T01:31:33.480Z,105.00
2023-01-07T01:35:00.542Z,68.30
2023-01-07T01:38:28.128Z,130.70
2023-01-07T01:41:55.295Z,65.00
2023-01-07T01:45:22.581Z,51.00
2023-01-07T01:48:54.019Z,43.20
2023-01-07T01:52:25.820Z,53.50
2023-01-07T01:55:56.906Z,52.50
2023-01-07T01:59:28.035Z,85.10
2023-01-07T02:02:59.411Z,96.20
2023-01-07T02:06:32.052Z,93.00
2023-01-07T02:10:02.896Z,180.40
2023-01-07T02:13:43.153Z,127.10
2023-01-07T02:20:56.851Z,82.60
2023-01-07T02:24:51.176Z,72.50
2023-01-07T02:28:42.523Z,59.90
2023-01-07T02:32:23.082Z,67.50
2023-01-07T02:36:06.139Z,84.30
2023-01-07T02:39:48.981Z,79.90
2023-01-07T02:43:23.291Z,75.30
2023-01-07T02:46:59.218Z,65.30
2023-01-07T02:50:26.552Z,96.90
2023-01-07T02:53:53.477Z,93.10
2023-01-07T02:57:47.003Z,138.00
2023-01-07T03:01:31.636Z,96.80
2023-01-07T03:05:13.697Z,111.10
2023-01-07T03:08:55.693Z,85.00
2023-01-07T03:12:30.910Z,125.20
2023-01-07T03:16:03.782Z,83.50
2023-01-07T03:19:34.200Z,93.80
2023-01-07T03:23:01.127Z,68.50
2023-01-07T03:26:32.398Z,92.70
2023-01-07T03:30:01.595Z,131.10
2023-01-07T03:33:37.200Z,126.10
2023-01-07T03:37:09.452Z,89.00
2023-01-07T03:40:37.543Z,155.00
2023-01-07T03:44:05.296Z,119.40
2023-01-07T03:47:32.461Z,136.10
2023-01-07T03:50:59.462Z,140.20
2023-01-07T03:54:26.904Z,216.40
2023-01-07T03:57:53.861Z,150.70
2023-01-07T04:01:20.846Z,66.10
2023-01-07T04:04:48.137Z,61.80
2023-01-07T04:08:15.584Z,59.80
2023-01-07T04:11:42.902Z,92.40
2023-01-07T04:15:11.679Z,37.90
2023-01-07T04:18:39.033Z,42.30
2023-01-07T04:22:06.505Z,79.10
2023-01-07T04:25:34.900Z,75.20
2023-01-07T04:32:30.021Z,101.80
2023-01-07T04:35:58.256Z,83.30
2023-01-07T04:39:25.812Z,47.20
2023-01-07T04:42:53.228Z,95.70
2023-01-07T04:46:20.447Z,66.10
2023-01-07T04:49:48.244Z,125.60
2023-01-07T04:53:15.557Z,100.90
2023-01-07T04:56:43.138Z,72.80
2023-01-07T05:00:12.735Z,93.50
2023-01-07T05:03:40.486Z,100.10
2023-01-07T05:07:08.301Z,138.70
2023-01-07T05:10:35.528Z,83.50
2023-01-07T05:14:03.958Z,98.80
2023-01-07T05:20:58.845Z,40.20
2023-01-07T05:24:25.945Z,56.30
2023-01-07T05:27:53.178Z,61.10
2023-01-07T05:31:22.693Z,49.30
2023-01-07T05:34:49.897Z,52.30
2023-01-07T05:38:18.385Z,35.00
2023-01-07T05:41:45.701Z,45.00
2023-01-07T05:45:14.336Z,56.50
2023-01-07T05:48:41.446Z,39.70
2023-01-07T05:52:08.535Z,62.70
2023-01-07T05:55:35.524Z,55.70
2023-01-07T05:59:02.590Z,64.80
2023-01-07T06:02:29.510Z,82.00
2023-01-07T06:05:56.634Z,83.00
2023-01-07T06:09:23.487Z,56.10
2023-01-07T06:12:51.355Z,88.00
2023-01-07T06:16:18.224Z,100.50
2023-01-07T06:19:45.301Z,94.30
2023-01-07T06:23:12.122Z,96.40
2023-01-07T06:26:38.957Z,100.60
2023-01-07T06:30:06.917Z,79.00
2023-01-07T06:33:33.875Z,69.90
2023-01-07T06:37:01.003Z,77.10
2023-01-07T06:40:28.279Z,75.00
2023-01-07T06:43:55.156Z,72.10
2023-01-07T06:47:22.138Z,65.00
2023-01-07T06:50:49.317Z,89.40
2023-01-07T06:54:16.903Z,97.10
2023-01-07T06:57:44.049Z,90.10
2023-01-07T07:01:11.492Z,97.30
2023-01-07T07:04:38.457Z,107.00
2023-01-07T07:08:06.439Z,99.40
2023-01-07T07:11:33.335Z,91.20
2023-01-07T07:15:00.195Z,117.40
2023-01-07T07:18:27.662Z,142.30
2023-01-07T07:21:54.669Z,94.30
2023-01-07T07:25:21.957Z,69.60
2023-01-07T07:28:48.753Z,64.20
2023-01-07T07:32:15.647Z,61.80
2023-01-07T07:35:42.668Z,78.30
2023-01-07T07:39:09.660Z,72.80
2023-01-07T07:43:10.992Z,83.80
2023-01-07T07:46:24.180Z,83.40
2023-01-07T07:49:51.430Z,72.20
2023-01-07T07:53:18.688Z,73.90
2023-01-07T07:56:45.927Z,76.60
2023-01-07T08:00:15.335Z,76.20
2023-01-07T08:03:42.293Z,79.70
2023-01-07T08:07:10.920Z,68.00
2023-01-07T08:10:37.923Z,73.70
2023-01-07T08:14:04.945Z,68.40
2023-01-07T08:17:31.881Z,70.10
2023-01-07T08:20:58.837Z,60.90
2023-01-07T08:24:25.669Z,50.50
2023-01-07T08:27:52.612Z,52.80
2023-01-07T08:31:19.525Z,61.90
2023-01-07T08:34:46.715Z,58.90
2023-01-07T08:38:13.802Z,46.80
2023-01-07T08:41:41.061Z,82.50
2023-01-07T08:45:10.871Z,82.20
2023-01-07T08:52:03.259Z,142.50
2023-01-07T08:55:30.250Z,153.40
2023-01-07T08:58:57.267Z,204.40
2023-01-07T09:02:24.180Z,256.20
2023-01-07T09:05:51.746Z,231.40
2023-01-07T09:09:19.024Z,160.40
2023-01-07T09:12:46.001Z,190.10
2023-01-07T09:16:12.901Z,176.40
2023-01-07T09:19:40.200Z,209.60
2023-01-07T09:23:07.669Z,174.30
2023-01-07T09:26:34.512Z,104.00
2023-01-07T09:30:01.768Z,93.40
2023-01-07T09:33:28.709Z,81.30
2023-01-07T09:36:55.580Z,62.40
2023-01-07T09:40:26.941Z,68.60
2023-01-07T09:44:01.996Z,82.30
2023-01-07T09:47:34.984Z,68.20
2023-01-07T09:51:06.765Z,50.80
2023-01-07T09:54:39.611Z,40.40
2023-01-07T09:58:06.841Z,32.40
2023-01-07T10:01:40.537Z,36.40
2023-01-07T10:05:21.203Z,32.90
2023-01-07T10:09:04.238Z,31.00
2023-01-07T10:12:38.760Z,29.70
2023-01-07T10:16:13.052Z,30.10
2023-01-07T10:19:48.948Z,26.00
2023-01-07T10:23:21.638Z,33.50
2023-01-07T10:26:52.243Z,30.90
2023-01-07T10:30:25.291Z,30.80
2023-01-07T10:33:53.370Z,30.00
2023-01-07T10:37:30.517Z,34.50
2023-01-07T10:41:01.945Z,42.00
2023-01-07T10:44:56.260Z,37.40
2023-01-07T10:48:40.629Z,36.50
2023-01-07T10:52:18.386Z,32.10
2023-01-07T10:55:58.251Z,32.80
2023-01-07T10:59:26.081Z,32.50
2023-01-07T11:02:57.730Z,31.80
2023-01-07T11:06:35.133Z,31.60
2023-01-07T11:10:05.574Z,32.90
2023-01-07T11:13:34.943Z,29.10
2023-01-07T11:17:11.507Z,27.60
2023-01-07T11:20:50.677Z,27.20
2023-01-07T11:24:33.662Z,27.10
2023-01-07T11:28:03.643Z,26.80
2023-01-07T11:31:48.662Z,25.10
2023-01-07T11:35:23.751Z,22.40
2023-01-07T11:38:50.604Z,21.20
2023-01-07T11:42:37.741Z,23.70
2023-01-07T11:46:19.762Z,25.00
2023-01-07T11:49:48.118Z,20.00
2023-01-07T11:53:37.959Z,22.80
2023-01-07T11:57:25.616Z,22.40
2023-01-07T12:01:05.776Z,21.60
2023-01-07T12:04:35.681Z,22.40
2023-01-07T12:08:03.342Z,25.10
2023-01-07T12:11:36.709Z,20.70
2023-01-07T12:15:06.212Z,20.90
2023-01-07T12:18:59.249Z,21.70
2023-01-07T12:22:40.262Z,18.90
2023-01-07T12:26:15.259Z,19.80
2023-01-07T12:29:54.528Z,19.90
2023-01-07T12:33:33.829Z,18.60
2023-01-07T12:37:03.372Z,21.10
2023-01-07T12:40:38.989Z,19.10
2023-01-07T12:44:13.687Z,19.10
2023-01-07T12:47:46.505Z,17.40
2023-01-07T12:51:20.894Z,18.20
2023-01-07T12:54:56.964Z,17.70
2023-01-07T12:58:36.723Z,19.10
2023-01-07T13:05:42.204Z,17.30
2023-01-07T13:09:22.935Z,21.70
2023-01-07T13:12:53.222Z,19.70
2023-01-07T13:16:20.542Z,21.60
2023-01-07T13:19:47.781Z,19.00
2023-01-07T13:23:22.687Z,19.00
2023-01-07T13:27:03.597Z,20.60
2023-01-07T13:30:40.067Z,25.20
2023-01-07T13:34:24.394Z,21.80
2023-01-07T13:38:07.412Z,26.50
2023-01-07T13:41:49.177Z,23.60
2023-01-07T13:45:21.440Z,21.90
2023-01-07T13:48:53.007Z,23.00
2023-01-07T13:52:22.256Z,24.40
2023-01-07T13:55:50.121Z,28.50
2023-01-07T13:59:48.343Z,30.20
2023-01-07T14:03:44.864Z,34.60
2023-01-07T14:07:12.638Z,31.20
2023-01-07T14:10:40.332Z,33.10
2023-01-07T14:14:15.861Z,31.00
2023-01-07T14:17:54.138Z,31.20
2023-01-07T14:21:33.837Z,28.10
2023-01-07T14:29:21.520Z,139.70
2023-01-07T14:32:57.149Z,55.90
2023-01-07T14:36:24.022Z,135.60
2023-01-07T14:39:51.643Z,132.30
2023-01-07T14:44:05.320Z,122.00
2023-01-07T14:47:55.316Z,109.80
2023-01-07T14:51:38.865Z,124.50
2023-01-07T14:55:34.252Z,97.30
2023-01-07T14:59:26.751Z,84.30
2023-01-07T15:03:21.941Z,81.50
2023-01-07T15:06:50.151Z,77.50
2023-01-07T15:10:40.439Z,84.10
2023-01-07T15:14:33.603Z,79.70
2023-01-07T15:18:00.953Z,102.70
2023-01-07T15:21:38.492Z,71.20
2023-01-07T15:25:18.093Z,72.10
2023-01-07T15:32:28.114Z,66.80
2023-01-07T15:35:55.783Z,71.80
2023-01-07T15:39:26.135Z,77.00
2023-01-07T15:42:58.238Z,90.40
2023-01-07T15:46:27.930Z,89.70
2023-01-07T15:49:54.901Z,84.30
2023-01-07T15:53:23.472Z,77.50
2023-01-07T15:56:54.029Z,69.70
2023-01-07T16:00:21.836Z,77.60
2023-01-07T16:03:50.876Z,72.70
2023-01-07T16:07:24.595Z,79.20
2023-01-07T16:11:03.464Z,82.20
2023-01-07T16:14:37.103Z,89.10
2023-01-07T16:18:05.351Z,89.50
2023-01-07T16:21:36.293Z,80.90
2023-01-07T16:25:11.719Z,90.30
2023-01-07T16:28:42.427Z,78.10
2023-01-07T16:32:10.032Z,91.80
2023-01-07T16:35:39.836Z,84.50
2023-01-07T16:42:35.629Z,93.70
2023-01-07T16:46:23.424Z,83.10
2023-01-07T16:49:51.109Z,80.70
2023-01-07T16:53:37.884Z,90.70
2023-01-07T16:57:06.962Z,93.20
2023-01-07T17:00:33.967Z,89.90
2023-01-07T17:04:03.655Z,80.20
2023-01-07T17:07:38.758Z,88.80
2023-01-07T17:11:09.357Z,94.50
2023-01-07T17:14:52.482Z,87.80
2023-01-07T17:18:36.714Z,93.30
2023-01-07T17:22:04.580Z,96.70
2023-01-07T17:25:38.652Z,94.50
2023-01-07T17:29:13.895Z,97.20
2023-01-07T17:32:44.419Z,87.70
2023-01-07T17:36:18.565Z,92.80
2023-01-07T17:39:46.205Z,102.40
2023-01-07T17:43:37.750Z,97.70
2023-01-07T17:47:07.732Z,99.40
2023-01-07T17:54:06.741Z,92.90
2023-01-07T17:57:33.701Z,102.20
2023-01-07T18:01:02.994Z,109.60
2023-01-07T18:07:56.516Z,129.10
2023-01-07T18:11:58.443Z,127.10
2023-01-07T18:15:28.420Z,98.30
2023-01-07T18:18:56.607Z,97.80
2023-01-07T18:22:25.343Z,103.00
2023-01-07T18:25:52.898Z,134.00
2023-01-07T18:29:19.883Z,143.30
2023-01-07T18:32:48.282Z,133.80
2023-01-07T18:36:16.706Z,191.50
2023-01-07T18:39:44.438Z,209.30
2023-01-07T18:43:14.643Z,187.50
2023-01-07T18:46:47.491Z,173.60
2023-01-07T18:50:15.853Z,156.60
2023-01-07T18:53:45.473Z,155.20
2023-01-07T19:00:39.010Z,137.20
2023-01-07T19:04:06.798Z,154.80
2023-01-07T19:07:35.312Z,170.40
2023-01-07T19:11:08.774Z,174.90
2023-01-07T19:14:37.006Z,150.40
2023-01-07T19:18:05.800Z,148.70
2023-01-07T19:21:33.397Z,160.30
2023-01-07T19:25:00.536Z,186.90
2023-01-07T19:28:28.484Z,179.50
2023-01-07T19:31:55.769Z,180.00
2023-01-07T19:35:23.320Z,196.10
2023-01-07T19:38:51.397Z,196.70
2023-01-07T19:42:18.691Z,162.30
2023-01-07T19:45:55.680Z,179.30
2023-01-07T19:49:23.162Z,193.60
2023-01-07T19:52:52.231Z,179.70
2023-01-07T19:56:19.515Z,166.80
2023-01-07T19:59:46.939Z,187.50
2023-01-07T20:03:14.917Z,185.00
2023-01-07T20:06:43.839Z,167.70
2023-01-07T20:13:41.045Z,162.90
2023-01-07T20:17:08.406Z,159.20
2023-01-07T20:20:36.079Z,162.50
2023-01-07T20:24:06.182Z,162.80
2023-01-07T20:27:34.764Z,133.00
2023-01-07T20:31:07.070Z,144.30
2023-01-07T20:34:34.568Z,140.00
2023-01-07T20:38:03.170Z,141.20
2023-01-07T20:41:30.974Z,133.00
2023-01-07T20:44:58.742Z,141.70
2023-01-07T20:48:26.398Z,142.90
2023-01-07T20:51:55.583Z,132.30
2023-01-07T20:55:24.265Z,128.00
2023-01-07T20:58:53.787Z,122.50
2023-01-07T21:02:21.861Z,119.40
2023-01-07T21:05:50.265Z,115.90
2023-01-07T21:09:19.666Z,115.60
2023-01-07T21:12:48.012Z,118.30
2023-01-07T21:16:16.611Z,127.30
2023-01-07T21:19:45.311Z,133.50
2023-01-07T21:23:13.135Z,137.80
2023-01-07T21:26:42.128Z,129.40
2023-01-07T21:30:16.311Z,133.00
2023-01-07T21:33:44.811Z,116.30
2023-01-07T21:37:13.580Z,123.60
2023-01-07T21:40:45.279Z,128.70
2023-01-07T21:44:14.982Z,118.10
2023-01-07T21:47:42.564Z,125.30
2023-01-07T21:51:19.809Z,128.10
2023-01-07T21:54:47.263Z,128.90
2023-01-07T21:58:14.349Z,123.30
2023-01-07T22:01:42.058Z,133.20
2023-01-07T22:05:11.931Z,141.30
2023-01-07T22:12:05.957Z,136.80
2023-01-07T22:15:32.789Z,133.60
2023-01-07T22:19:01.278Z,139.50
2023-01-07T22:22:28.792Z,139.90
2023-01-07T22:25:55.726Z,140.10
2023-01-07T22:29:23.031Z,126.30
2023-01-07T22:32:50.412Z,130.80
2023-01-07T22:36:23.808Z,129.30
2023-01-07T22:39:57.168Z,128.50
2023-01-07T22:43:26.097Z,124.50
2023-01-07T22:46:54.083Z,125.90
2023-01-07T22:50:21.736Z,115.70
2023-01-07T22:53:54.594Z,111.10
2023-01-07T22:57:22.431Z,111.40
2023-01-07T23:01:13.939Z,114.50
2023-01-07T23:04:41.269Z,112.30
2023-01-07T23:08:10.129Z,112.20
2023-01-07T23:11:49.802Z,120.80
2023-01-07T23:15:17.125Z,111.30
2023-01-07T23:18:44.236Z,127.00
2023-01-07T23:22:11.376Z,119.30
2023-01-07T23:25:39.008Z,122.00
2023-01-07T23:29:07.024Z,121.30
2023-01-07T23:32:34.169Z,121.50
2023-01-07T23:36:05.935Z,115.50
2023-01-07T23:39:32.925Z,129.10
2023-01-07T23:42:59.846Z,114.70
2023-01-07T23:46:26.967Z,115.30
2023-01-07T23:49:54.083Z,118.70
2023-01-07T23:53:25.390Z,105.80
2023-01-07T23:56:53.504Z,109.80
